Time;durP1;ratioP1;P1;durP2;ratioP2;P2;SDS_P1;SDS_P2;PMS_P1;PMS_P2;Temp;Humidity;BMP_temperature;BMP_pressure;BME280_temperature;BME280_humidity;BME280_pressure;Samples;Min_cycle;Max_cycle;Signal;HPM_P1;HPM_P2
2022/07/26 00:00:15;;;;;;;;;1.00;1.00;;;;;22.67;76.99;101429.44;5136128;27;45339;-81
2022/07/26 00:02:41;;;;;;;;;1.75;0.50;;;;;22.63;76.97;101426.75;5136701;27;45361;-81
2022/07/26 00:05:08;;;;;;;;;1.00;1.00;;;;;22.62;76.82;101420.63;5142852;27;45466;-81
2022/07/26 00:07:34;;;;;;;;;2.50;1.00;;;;;22.62;77.30;101425.03;5141764;27;45221;-82
2022/07/26 00:09:59;;;;;;;;;2.25;1.00;;;;;22.58;77.09;101426.75;5139479;27;45184;-81
2022/07/26 00:12:25;;;;;;;;;2.00;1.00;;;;;22.58;77.41;101421.47;5111155;27;45276;-80
2022/07/26 00:14:51;;;;;;;;;2.25;1.00;;;;;22.57;77.53;101424.97;5140615;27;45542;-82
2022/07/26 00:17:17;;;;;;;;;2.00;1.75;;;;;22.56;77.54;101416.19;5139930;27;46193;-80
2022/07/26 00:19:43;;;;;;;;;0.50;0.50;;;;;22.62;77.66;101431.16;5139145;27;45330;-81
2022/07/26 00:24:53;;;;;;;;;0.50;0.50;;;;;22.59;78.23;101425.00;5130399;27;45348;-81
2022/07/26 00:27:19;;;;;;;;;2.00;1.25;;;;;22.56;78.07;101424.09;5120770;27;45376;-81
2022/07/26 00:29:44;;;;;;;;;4.00;1.50;;;;;22.55;78.53;101426.75;5123241;27;45435;-81
2022/07/26 00:32:10;;;;;;;;;1.00;1.00;;;;;22.49;78.46;101427.59;5142819;27;45518;-81
2022/07/26 00:34:35;;;;;;;;;0.00;0.00;;;;;22.46;78.08;101432.84;5114257;27;45471;-81
2022/07/26 00:37:01;;;;;;;;;1.25;1.00;;;;;22.45;79.06;101440.78;5121079;27;46270;-81
2022/07/26 00:39:27;;;;;;;;;1.00;1.00;;;;;22.40;79.08;101443.34;5122900;27;45300;-81
2022/07/26 00:41:53;;;;;;;;;1.00;0.75;;;;;22.36;79.88;101444.19;5135050;27;45261;-81
2022/07/26 00:44:19;;;;;;;;;2.00;1.00;;;;;22.33;79.94;101437.16;5108142;27;45281;-81
2022/07/26 00:46:45;;;;;;;;;1.50;1.00;;;;;22.29;79.75;101429.22;5138411;27;45378;-81
2022/07/26 00:49:11;;;;;;;;;0.00;0.00;;;;;22.28;79.68;101430.94;5142416;27;45939;-81
2022/07/26 00:51:37;;;;;;;;;1.25;0.75;;;;;22.24;79.71;101430.06;5126976;27;45390;-81
2022/07/26 00:54:04;;;;;;;;;0.75;0.75;;;;;22.22;80.02;101429.16;5125776;27;45542;-81
2022/07/26 00:56:32;;;;;;;;;0.50;0.50;;;;;22.20;80.60;101430.91;5132067;27;46878;-81
2022/07/26 00:58:58;;;;;;;;;1.00;1.00;;;;;22.13;80.12;101417.69;5144410;27;45158;-81
2022/07/26 01:01:24;;;;;;;;;0.75;0.75;;;;;22.08;80.49;101429.06;5141804;27;45357;-81
2022/07/26 01:03:52;;;;;;;;;0.75;0.00;;;;;22.03;80.07;101416.72;5140246;27;45230;-81
2022/07/26 01:06:18;;;;;;;;;1.25;0.00;;;;;22.02;80.86;101413.22;5116992;27;46513;-81
2022/07/26 01:08:44;;;;;;;;;1.00;1.00;;;;;22.02;79.83;101422.88;5135753;27;45671;-81
2022/07/26 01:11:09;;;;;;;;;1.00;1.00;;;;;22.01;79.84;101422.00;5144759;27;45379;-81
2022/07/26 01:13:35;;;;;;;;;0.50;0.00;;;;;21.98;80.57;101413.16;5130533;27;45678;-81
2022/07/26 01:16:00;;;;;;;;;1.00;1.00;;;;;21.97;80.33;101419.34;5142456;27;45381;-81
2022/07/26 01:18:26;;;;;;;;;0.00;0.00;;;;;21.92;80.23;101416.66;5139754;27;45281;-81
2022/07/26 01:20:53;;;;;;;;;0.25;0.25;;;;;21.92;81.22;101419.31;5104815;27;45506;-81
2022/07/26 01:23:18;;;;;;;;;1.00;1.00;;;;;21.87;80.77;101410.47;5141022;27;45563;-81
2022/07/26 01:25:45;;;;;;;;;1.75;1.00;;;;;21.85;81.39;101412.19;5122557;27;45923;-81
2022/07/26 01:28:10;;;;;;;;;2.00;0.25;;;;;21.83;80.69;101413.94;5123179;27;45234;-81
2022/07/26 01:30:36;;;;;;;;;1.00;0.00;;;;;21.80;81.72;101412.16;5139882;27;45916;-81
2022/07/26 01:33:01;;;;;;;;;1.75;1.75;;;;;21.71;81.79;101414.72;5140247;27;45588;-81
2022/07/26 01:35:27;;;;;;;;;1.25;0.00;;;;;21.69;81.71;101425.25;5124352;27;45728;-81
2022/07/26 01:37:56;;;;;;;;;0.00;0.00;;;;;21.69;81.45;101420.00;5118569;27;45499;-82
2022/07/26 01:40:22;;;;;;;;;0.00;0.00;;;;;21.68;81.77;101415.59;5119279;27;45206;-81
2022/07/26 01:42:47;;;;;;;;;1.75;1.75;;;;;21.68;81.91;101415.59;5122692;27;45582;-81
2022/07/26 01:45:13;;;;;;;;;1.50;1.00;;;;;21.68;81.57;101412.97;5132527;27;45364;-81
2022/07/26 01:47:39;;;;;;;;;0.50;0.25;;;;;21.68;82.10;101414.69;5120856;27;45491;-81
2022/07/26 01:50:07;;;;;;;;;1.00;1.00;;;;;21.63;82.82;101418.19;5120249;27;45528;-82
2022/07/26 01:52:34;;;;;;;;;1.75;0.50;;;;;21.61;82.38;101417.28;5119385;27;45436;-81
2022/07/26 01:55:00;;;;;;;;;1.00;1.00;;;;;21.57;83.25;101410.19;5125394;27;45357;-82
2022/07/26 01:57:25;;;;;;;;;1.25;1.00;;;;;21.50;83.72;101408.38;5133569;27;45412;-82
2022/07/26 01:59:51;;;;;;;;;1.00;1.00;;;;;21.54;84.38;101417.19;5106067;27;45267;-81
2022/07/26 02:02:17;;;;;;;;;1.50;0.50;;;;;21.47;84.75;101416.22;5131673;27;45439;-81
2022/07/26 02:04:57;;;;;;;;;0.00;0.00;;;;;21.42;84.82;101410.94;5128119;27;45198;-81
2022/07/26 02:07:27;;;;;;;;;0.00;0.00;;;;;21.37;85.35;101406.47;5135895;27;45608;-81
2022/07/26 02:09:53;;;;;;;;;0.50;0.00;;;;;21.33;84.06;101414.34;5135380;27;45222;-82
2022/07/26 02:12:18;;;;;;;;;0.25;0.25;;;;;21.32;85.75;101406.44;5131313;27;45661;-82
2022/07/26 02:14:44;;;;;;;;;0.75;0.75;;;;;21.32;85.16;101419.59;5133361;27;45384;-81
2022/07/26 02:17:09;;;;;;;;;1.00;1.00;;;;;21.27;85.81;101424.84;5120381;27;45191;-81
2022/07/26 02:19:35;;;;;;;;;1.00;1.00;;;;;21.23;86.92;101414.25;5119378;27;45191;-82
2022/07/26 02:22:01;;;;;;;;;1.50;0.00;;;;;21.20;86.63;101417.75;5102053;27;45510;-81
2022/07/26 02:24:28;;;;;;;;;0.00;0.00;;;;;21.15;88.12;101417.69;5121367;27;45833;-82
2022/07/26 02:26:55;;;;;;;;;0.00;0.00;;;;;21.09;88.08;101409.72;5127732;27;45415;-81
2022/07/26 02:29:21;;;;;;;;;1.00;1.00;;;;;21.10;87.81;101410.63;5118733;27;45430;-82
2022/07/26 02:31:46;;;;;;;;;0.00;0.00;;;;;21.09;88.20;101411.47;5119166;27;45243;-81
2022/07/26 02:34:12;;;;;;;;;0.00;0.00;;;;;21.08;88.87;101433.41;5103393;27;46448;-81
2022/07/26 02:36:37;;;;;;;;;1.00;1.00;;;;;21.00;89.20;101420.16;5139795;27;45287;-81
2022/07/26 02:39:04;;;;;;;;;0.75;0.25;;;;;20.96;89.41;101432.41;5139033;27;45207;-81
2022/07/26 02:41:30;;;;;;;;;1.00;0.75;;;;;20.97;89.48;101422.75;5139821;27;45277;-81
2022/07/26 02:43:55;;;;;;;;;1.00;1.00;;;;;20.95;89.39;101413.97;5119770;27;45888;-81
2022/07/26 02:46:21;;;;;;;;;1.00;1.00;;;;;20.88;92.35;101416.50;5103211;27;45509;-81
2022/07/26 02:48:47;;;;;;;;;1.00;1.00;;;;;20.85;91.92;101418.22;5117838;27;45452;-82
2022/07/26 02:51:12;;;;;;;;;2.50;1.00;;;;;20.84;92.63;101424.34;5118472;27;45410;-81
2022/07/26 02:53:38;;;;;;;;;0.00;0.00;;;;;20.85;91.93;101428.75;5099449;27;45576;-81
2022/07/26 02:56:04;;;;;;;;;0.25;0.25;;;;;20.85;93.04;101426.13;5123634;27;45324;-81
2022/07/26 02:58:30;;;;;;;;;0.00;0.00;;;;;20.81;92.51;101429.56;5139611;27;45343;-81
2022/07/26 03:00:55;;;;;;;;;0.75;0.00;;;;;20.78;94.77;101426.91;5130013;27;45407;-82
2022/07/26 03:03:21;;;;;;;;;1.75;1.00;;;;;20.76;93.73;101420.75;5132530;27;45268;-81
2022/07/26 03:05:47;;;;;;;;;0.75;0.50;;;;;20.72;94.94;101417.16;5137562;27;45308;-81
2022/07/26 03:08:12;;;;;;;;;1.00;0.00;;;;;20.71;95.11;101425.91;5138704;27;45256;-81
2022/07/26 03:10:38;;;;;;;;;2.50;1.00;;;;;20.73;96.90;101427.69;5099436;27;45287;-81
2022/07/26 03:13:03;;;;;;;;;0.75;0.75;;;;;20.66;96.93;101425.88;5118041;27;46336;-81
2022/07/26 03:15:29;;;;;;;;;1.75;1.75;;;;;20.61;97.99;101424.03;5122013;27;45551;-82
2022/07/26 03:17:55;;;;;;;;;1.50;1.50;;;;;20.57;99.10;101426.63;5119941;27;45468;-81
2022/07/26 03:20:21;;;;;;;;;1.00;1.00;;;;;20.56;98.49;101426.63;5124224;27;45959;-82
2022/07/26 03:22:46;;;;;;;;;1.00;1.00;;;;;20.54;99.74;101441.47;5135556;27;45336;-81
2022/07/26 03:25:12;;;;;;;;;1.00;0.75;;;;;20.52;98.94;101438.81;5122426;27;45385;-81
2022/07/26 03:27:37;;;;;;;;;1.00;1.00;;;;;20.52;99.78;101424.78;5119074;27;45571;-82
2022/07/26 03:30:05;;;;;;;;;1.00;0.75;;;;;20.52;100.00;101425.66;5117931;27;45378;-81
2022/07/26 03:32:30;;;;;;;;;2.00;1.00;;;;;20.57;100.00;101437.16;5117634;27;47293;-82
2022/07/26 03:34:56;;;;;;;;;1.00;1.00;;;;;20.56;98.91;101437.13;5122194;27;45354;-82
2022/07/26 03:37:22;;;;;;;;;1.00;1.00;;;;;20.52;99.28;101433.56;5117546;27;45277;-82
2022/07/26 03:39:48;;;;;;;;;1.00;1.00;;;;;20.50;100.00;101430.03;5137062;27;45467;-82
2022/07/26 03:42:13;;;;;;;;;6.00;1.00;;;;;20.50;99.97;101434.41;5139735;27;45850;-81
2022/07/26 03:44:39;;;;;;;;;0.25;0.25;;;;;20.49;100.00;101438.78;5127770;27;45523;-81
2022/07/26 03:47:05;;;;;;;;;0.75;0.00;;;;;20.46;100.00;101437.88;5137933;27;45275;-82
2022/07/26 03:49:30;;;;;;;;;1.75;1.75;;;;;20.42;100.00;101444.81;5125863;27;45662;-81
2022/07/26 03:51:56;;;;;;;;;3.00;1.25;;;;;20.42;100.00;101448.34;5133014;27;45480;-81
2022/07/26 03:54:22;;;;;;;;;1.00;1.00;;;;;20.42;100.00;101455.31;5135326;27;45443;-81
2022/07/26 03:56:47;;;;;;;;;1.00;1.00;;;;;20.39;100.00;101447.41;5129473;27;45425;-81
2022/07/26 03:59:13;;;;;;;;;1.50;1.00;;;;;20.36;100.00;101442.09;5139849;27;45476;-81
2022/07/26 04:01:40;;;;;;;;;1.00;1.00;;;;;20.37;100.00;101452.63;5123595;27;46194;-81
2022/07/26 04:04:11;;;;;;;;;1.00;1.00;;;;;20.41;100.00;101445.66;5127300;27;45523;-80
2022/07/26 04:06:38;;;;;;;;;1.50;1.00;;;;;20.37;100.00;101452.63;5131251;27;45379;-81
2022/07/26 04:09:05;;;;;;;;;4.25;2.00;;;;;20.32;100.00;101441.19;5143536;27;45497;-82
2022/07/26 04:11:31;;;;;;;;;1.00;1.00;;;;;20.35;100.00;101448.22;5143929;27;46130;-81
2022/07/26 04:13:57;;;;;;;;;2.00;0.00;;;;;20.34;100.00;101443.81;5141852;27;45211;-82
2022/07/26 04:16:23;;;;;;;;;1.00;1.00;;;;;20.36;100.00;101447.38;5121915;27;45449;-82
2022/07/26 04:18:49;;;;;;;;;0.25;0.25;;;;;20.42;100.00;101447.44;5141611;27;45570;-82
2022/07/26 04:21:15;;;;;;;;;2.00;2.00;;;;;20.45;100.00;101452.75;5125467;27;46285;-81
2022/07/26 04:23:40;;;;;;;;;2.00;0.50;;;;;20.48;100.00;101452.81;5122553;27;45214;-81
2022/07/26 04:26:06;;;;;;;;;1.00;1.00;;;;;20.51;100.00;101459.84;5122312;27;45679;-81
2022/07/26 04:28:32;;;;;;;;;1.50;0.00;;;;;20.52;100.00;101454.59;5122347;27;45518;-81
2022/07/26 04:30:59;;;;;;;;;2.00;1.00;;;;;20.55;100.00;101453.78;5138012;27;45490;-81
2022/07/26 04:33:25;;;;;;;;;2.00;1.00;;;;;20.60;100.00;101446.81;5142932;27;45482;-82
2022/07/26 04:35:52;;;;;;;;;1.75;1.00;;;;;20.65;100.00;101450.41;5135847;27;45335;-82
2022/07/26 04:38:18;;;;;;;;;1.00;1.00;;;;;20.67;100.00;101455.69;5143972;27;45254;-81
2022/07/26 04:40:44;;;;;;;;;2.00;2.00;;;;;20.66;100.00;101452.19;5130388;27;45451;-81
2022/07/26 04:43:10;;;;;;;;;0.25;0.25;;;;;20.68;100.00;101455.69;5126827;27;45340;-82
2022/07/26 04:45:36;;;;;;;;;1.50;1.50;;;;;20.68;100.00;101450.44;5132075;27;45428;-81
2022/07/26 04:48:02;;;;;;;;;2.50;1.00;;;;;20.75;100.00;101464.59;5122497;27;45429;-81
2022/07/26 04:50:27;;;;;;;;;1.00;1.00;;;;;20.77;100.00;101464.63;5142040;27;45987;-81
2022/07/26 04:52:53;;;;;;;;;1.75;1.00;;;;;20.76;100.00;101463.72;5127439;27;46321;-80
2022/07/26 04:55:21;;;;;;;;;2.75;1.50;;;;;20.78;100.00;101464.63;5133257;27;45323;-81
2022/07/26 04:57:48;;;;;;;;;4.50;2.00;;;;;20.80;100.00;101462.91;5141586;27;45481;-81
2022/07/26 05:00:16;;;;;;;;;1.50;1.00;;;;;20.87;100.00;101463.88;5127566;27;45469;-81
2022/07/26 05:02:41;;;;;;;;;1.00;1.00;;;;;20.88;100.00;101478.81;5103008;27;45372;-80
2022/07/26 05:05:08;;;;;;;;;1.75;1.00;;;;;20.86;100.00;101477.91;5122130;27;45366;-80
2022/07/26 05:07:48;;;;;;;;;2.00;2.00;;;;;20.81;100.00;101476.94;5121900;27;45619;-81
2022/07/26 05:10:15;;;;;;;;;2.00;1.00;;;;;20.75;100.00;101469.84;5121829;27;45282;-81
2022/07/26 05:12:40;;;;;;;;;0.50;0.50;;;;;20.75;100.00;101480.38;5130294;27;45420;-80
2022/07/26 05:15:07;;;;;;;;;0.75;0.75;;;;;20.76;100.00;101482.16;5140680;27;45739;-81
2022/07/26 05:17:33;;;;;;;;;1.50;1.00;;;;;20.76;100.00;101490.03;5133588;27;45525;-80
2022/07/26 05:19:58;;;;;;;;;4.50;1.50;;;;;20.74;100.00;101486.50;5117876;27;45562;-81
2022/07/26 05:22:24;;;;;;;;;2.75;2.00;;;;;20.76;100.00;101490.03;5131365;27;45423;-81
2022/07/26 05:24:50;;;;;;;;;1.00;1.00;;;;;20.77;100.00;101491.81;5122823;27;45392;-80
2022/07/26 05:27:15;;;;;;;;;2.25;1.00;;;;;20.77;100.00;101494.44;5120003;27;45376;-80
2022/07/26 05:29:41;;;;;;;;;1.50;1.00;;;;;20.78;100.00;101492.72;5129262;27;46114;-80
2022/07/26 05:32:07;;;;;;;;;4.50;2.00;;;;;20.73;100.00;101498.75;5127582;27;47183;-79
2022/07/26 05:34:32;;;;;;;;;3.00;1.25;;;;;20.75;100.00;101495.28;5129089;27;45286;-80
2022/07/26 05:36:58;;;;;;;;;2.00;2.00;;;;;20.70;100.00;101490.81;5130467;27;45486;-81
2022/07/26 05:39:23;;;;;;;;;2.50;2.00;;;;;20.72;100.00;101491.72;5136304;27;46641;-84
2022/07/26 05:41:49;;;;;;;;;2.50;1.25;;;;;20.77;100.00;101497.06;5136785;27;45463;-84
2022/07/26 05:44:14;;;;;;;;;1.00;1.00;;;;;20.78;100.00;101497.97;5126465;27;45246;-80
2022/07/26 05:46:40;;;;;;;;;3.00;1.25;;;;;20.76;100.00;101492.66;5123101;27;45239;-81
2022/07/26 05:49:06;;;;;;;;;1.75;1.75;;;;;20.75;100.00;101498.78;5122177;27;46167;-81
2022/07/26 05:51:32;;;;;;;;;2.25;1.50;;;;;20.72;100.00;101496.97;5123422;27;45633;-86
2022/07/26 05:53:58;;;;;;;;;3.75;2.25;;;;;20.76;100.00;101491.81;5087571;27;45473;-81
2022/07/26 05:56:24;;;;;;;;;1.00;1.00;;;;;20.76;100.00;101499.69;5145909;27;45646;-83
2022/07/26 05:58:50;;;;;;;;;3.25;2.50;;;;;20.69;100.00;101490.78;5125693;27;45424;-83
2022/07/26 06:01:15;;;;;;;;;1.50;1.00;;;;;20.76;100.00;101505.81;5137472;27;45341;-85
2022/07/26 06:03:41;;;;;;;;;1.25;1.25;;;;;20.78;100.00;101511.13;5124807;27;45370;-85
2022/07/26 06:06:06;;;;;;;;;1.25;1.25;;;;;20.77;100.00;101512.00;5122478;27;45199;-81
2022/07/26 06:08:32;;;;;;;;;2.00;2.00;;;;;20.78;100.00;101497.97;5111187;27;47687;-82
2022/07/26 06:10:58;;;;;;;;;1.50;1.50;;;;;20.83;100.00;101509.44;5124504;27;45276;-84
2022/07/26 06:13:24;;;;;;;;;4.00;2.00;;;;;20.83;100.00;101517.31;5129811;27;45219;-84
2022/07/26 06:15:50;;;;;;;;;2.75;1.00;;;;;20.82;100.00;101521.72;5123735;27;45454;-84
2022/07/26 06:18:15;;;;;;;;;4.50;1.00;;;;;20.82;100.00;101523.44;5122599;27;45398;-90
2022/07/26 06:20:44;;;;;;;;;3.00;2.00;;;;;20.83;100.00;101518.22;5127425;27;45298;-89
2022/07/26 06:23:10;;;;;;;;;1.75;1.75;;;;;20.79;100.00;101524.31;5127881;27;44912;-86
2022/07/26 06:25:36;;;;;;;;;5.50;2.00;;;;;20.75;100.00;101521.59;5107074;27;45419;-85
2022/07/26 06:28:07;;;;;;;;;2.00;2.00;;;;;20.79;100.00;101520.78;5100737;27;47696;-82
2022/07/26 06:30:33;;;;;;;;;2.25;2.00;;;;;20.77;100.00;101526.03;5131311;27;45359;-83
2022/07/26 06:33:14;;;;;;;;;4.25;2.00;;;;;20.80;100.00;101527.81;5084446;27;45420;-83
2022/07/26 06:35:41;;;;;;;;;2.00;2.00;;;;;20.80;100.00;101530.44;5124039;27;46727;-82
2022/07/26 06:38:07;;;;;;;;;1.50;1.50;;;;;20.79;100.00;101529.56;5124158;27;45346;-79
2022/07/26 06:40:33;;;;;;;;;2.00;2.00;;;;;20.80;100.00;101531.34;5122418;27;45440;-82
2022/07/26 06:43:01;;;;;;;;;3.00;2.25;;;;;20.85;100.00;101523.50;5121265;27;45510;-82
2022/07/26 06:45:28;;;;;;;;;1.50;1.50;;;;;20.87;100.00;101529.69;5124099;27;45686;-81
2022/07/26 06:47:54;;;;;;;;;3.00;3.00;;;;;20.88;100.00;101528.81;5127504;27;45341;-77
2022/07/26 06:50:21;;;;;;;;;3.00;1.50;;;;;20.87;100.00;101529.69;5107260;27;45427;-85
2022/07/26 06:52:46;;;;;;;;;4.25;2.25;;;;;20.84;100.00;101529.63;5126656;27;45481;-81
2022/07/26 06:55:12;;;;;;;;;2.75;2.25;;;;;20.86;100.00;101530.53;5134596;27;45419;-83
2022/07/26 06:57:39;;;;;;;;;3.00;2.00;;;;;20.91;100.00;101535.88;5124947;27;46371;-83
2022/07/26 07:00:07;;;;;;;;;3.25;2.50;;;;;20.88;100.00;101527.06;5121380;27;45335;-84
2022/07/26 07:02:34;;;;;;;;;3.00;1.25;;;;;20.94;100.00;101542.06;5121190;27;45329;-81
2022/07/26 07:05:00;;;;;;;;;2.00;1.00;;;;;20.89;100.00;101535.84;5106398;27;45356;-84
2022/07/26 07:07:26;;;;;;;;;2.75;2.00;;;;;20.90;100.00;101532.34;5124992;27;45258;-82
2022/07/26 07:09:52;;;;;;;;;2.75;2.00;;;;;20.91;100.00;101536.72;5121762;27;45465;-84
2022/07/26 07:12:18;;;;;;;;;3.50;1.25;;;;;20.94;100.00;101539.41;5124713;27;45345;-86
2022/07/26 07:14:44;;;;;;;;;2.75;2.75;;;;;20.97;100.00;101533.31;5128100;27;45254;-86
2022/07/26 07:17:10;;;;;;;;;5.50;2.00;;;;;20.99;100.00;101535.13;5123056;27;45383;-87
2022/07/26 07:19:37;;;;;;;;;3.00;2.75;;;;;21.03;100.00;101554.47;5123042;27;46070;-87
2022/07/26 07:22:03;;;;;;;;;4.00;3.00;;;;;21.01;100.00;101543.88;5125240;27;45301;-89
2022/07/26 07:24:29;;;;;;;;;2.00;2.00;;;;;21.05;100.00;101544.84;5124010;27;45276;-87
2022/07/26 07:26:55;;;;;;;;;2.00;2.00;;;;;21.07;100.00;101550.13;5122065;27;46170;-85
2022/07/26 07:29:20;;;;;;;;;3.75;2.00;;;;;21.15;100.00;101551.09;5122048;27;45378;-87
2022/07/26 07:31:47;;;;;;;;;2.00;2.00;;;;;21.17;100.00;101552.00;5129275;27;45345;-87
2022/07/26 07:34:14;;;;;;;;;3.00;1.75;;;;;21.20;100.00;101538.88;5127766;27;45551;-84
2022/07/26 07:36:40;;;;;;;;;3.00;2.75;;;;;21.22;100.00;101547.66;5103702;27;47122;-88
2022/07/26 07:39:06;;;;;;;;;2.00;2.00;;;;;21.28;100.00;101552.13;5119537;27;45303;-86
2022/07/26 07:41:33;;;;;;;;;4.00;2.25;;;;;21.27;100.00;101542.47;5119169;27;45202;-86
2022/07/26 07:43:59;;;;;;;;;3.75;2.00;;;;;21.32;100.00;101552.22;5120833;27;45244;-86
2022/07/26 07:46:26;;;;;;;;;4.00;2.50;;;;;21.36;100.00;101547.84;5118805;27;45409;-85
2022/07/26 07:48:52;;;;;;;;;3.00;1.75;;;;;21.29;100.00;101546.00;5099748;27;46115;-86
2022/07/26 07:51:18;;;;;;;;;2.00;2.00;;;;;21.25;100.00;101545.06;5118842;27;45347;-86
2022/07/26 07:53:44;;;;;;;;;3.00;2.00;;;;;21.29;100.00;101546.91;5118764;27;45503;-86
2022/07/26 07:56:10;;;;;;;;;1.00;0.75;;;;;21.35;100.00;101546.09;5118909;27;45412;-86
2022/07/26 07:58:36;;;;;;;;;2.00;2.00;;;;;21.42;100.00;101545.28;5125464;27;45386;-88
2022/07/26 08:01:01;;;;;;;;;4.00;3.00;;;;;21.48;100.00;101555.00;5136805;27;44706;-95
2022/07/26 08:03:27;;;;;;;;;4.00;2.00;;;;;21.53;100.00;101550.69;5129293;27;45171;-88
2022/07/26 08:05:53;;;;;;;;;2.00;2.00;;;;;21.53;98.86;101555.97;5123794;27;46186;-91
2022/07/26 08:08:19;;;;;;;;;2.50;2.25;;;;;21.56;99.40;101557.72;5106242;27;45227;-88
2022/07/26 08:10:44;;;;;;;;;2.25;2.25;;;;;21.62;99.39;101557.81;5124932;27;45371;-86
2022/07/26 08:13:10;;;;;;;;;3.25;2.00;;;;;21.67;97.46;101555.22;5122431;27;45279;-88
2022/07/26 08:15:35;;;;;;;;;3.50;3.50;;;;;21.70;96.09;101563.19;5103067;27;45657;-85
2022/07/26 08:18:01;;;;;;;;;2.00;2.00;;;;;21.75;96.34;101557.09;5110718;27;45310;-84
2022/07/26 08:20:27;;;;;;;;;3.00;2.00;;;;;21.80;96.13;101558.03;5124299;27;45388;-85
2022/07/26 08:22:52;;;;;;;;;2.00;2.00;;;;;21.84;95.99;101565.94;5126343;27;45421;-85
2022/07/26 08:25:18;;;;;;;;;3.50;2.00;;;;;21.85;94.68;101562.44;5130083;27;45463;-84
2022/07/26 08:27:44;;;;;;;;;3.25;1.25;;;;;21.84;94.58;101565.94;5133484;27;45251;-85
2022/07/26 08:30:10;;;;;;;;;3.75;3.00;;;;;21.85;95.21;101566.00;5123394;27;45345;-86
2022/07/26 08:32:36;;;;;;;;;3.25;1.50;;;;;21.89;94.18;101556.34;5121348;27;45345;-87
2022/07/26 08:35:01;;;;;;;;;2.00;2.00;;;;;21.90;94.17;101572.19;5122518;27;45881;-87
2022/07/26 08:37:27;;;;;;;;;4.00;2.00;;;;;21.88;92.98;101571.28;5121227;27;45279;-88
2022/07/26 08:39:53;;;;;;;;;3.00;1.50;;;;;21.90;93.57;101576.59;5120844;27;45216;-85
2022/07/26 08:42:23;;;;;;;;;3.00;2.00;;;;;21.89;94.00;101582.72;5101762;27;45206;-86
2022/07/26 08:44:50;;;;;;;;;2.00;2.00;;;;;21.85;93.71;101570.38;5126641;27;46230;-93
2022/07/26 08:47:22;;;;;;;;;5.50;2.00;;;;;21.85;95.19;101573.91;5128214;27;45697;-88
2022/07/26 08:49:48;;;;;;;;;2.25;2.00;;;;;21.90;94.67;101566.91;5129896;27;45361;-89
2022/07/26 08:52:15;;;;;;;;;4.75;3.50;;;;;21.92;94.91;101565.16;5134779;27;45291;-85
2022/07/26 08:54:46;;;;;;;;;3.50;2.00;;;;;21.93;94.86;101571.31;5134168;27;45324;-87
2022/07/26 08:57:13;;;;;;;;;5.00;2.00;;;;;21.91;95.71;101571.31;5123389;27;45369;-86
2022/07/26 08:59:38;;;;;;;;;2.25;2.00;;;;;21.98;95.21;101577.53;5123536;27;45425;-84
2022/07/26 09:02:07;;;;;;;;;6.25;3.00;;;;;22.00;90.81;101569.63;5124747;27;45342;-84
2022/07/26 09:04:38;;;;;;;;;3.00;3.00;;;;;22.01;89.88;101568.75;5122296;27;45579;-87
2022/07/26 09:07:10;;;;;;;;;5.00;3.00;;;;;22.06;90.50;101581.13;5122823;27;45373;-84
2022/07/26 09:10:04;;;;;;;;;2.25;1.75;;;;;22.08;90.63;101578.53;5122730;27;45295;-85
2022/07/26 09:12:31;;;;;;;;;2.00;2.00;;;;;22.09;89.28;101574.97;5124893;27;45361;-85
2022/07/26 09:14:58;;;;;;;;;3.25;3.25;;;;;22.15;89.88;101590.88;5127971;27;45343;-86
2022/07/26 09:17:40;;;;;;;;;4.75;4.00;;;;;22.17;89.13;101589.16;5110736;27;45447;-86
2022/07/26 09:20:17;;;;;;;;;3.75;3.75;;;;;22.15;89.30;101580.34;5129965;27;45549;-84
2022/07/26 09:23:10;;;;;;;;;4.50;3.00;;;;;22.22;87.64;101587.41;5124010;27;45377;-85
2022/07/26 09:25:42;;;;;;;;;3.00;3.00;;;;;22.29;87.20;101588.34;5123148;27;46160;-85
2022/07/26 09:28:25;;;;;;;;;1.75;1.75;;;;;22.32;85.12;101596.31;5122554;27;45262;-84
2022/07/26 09:30:53;;;;;;;;;4.00;3.00;;;;;22.31;86.06;101596.28;5122380;27;45398;-89
2022/07/26 09:33:19;;;;;;;;;4.00;3.00;;;;;22.32;85.52;101590.13;5121414;27;45321;-86
2022/07/26 09:36:00;;;;;;;;;2.50;2.25;;;;;22.37;84.17;101591.06;5102576;27;47779;-87
2022/07/26 09:38:43;;;;;;;;;2.00;2.00;;;;;22.38;83.57;101590.19;5121125;27;45475;-87
2022/07/26 09:41:26;;;;;;;;;1.25;1.25;;;;;22.48;82.54;101600.00;5122870;27;45411;-88
2022/07/26 09:43:53;;;;;;;;;4.00;3.00;;;;;22.51;82.32;101593.84;5109509;27;45415;-85
2022/07/26 09:46:20;;;;;;;;;3.00;2.00;;;;;22.54;81.80;101599.16;5128503;27;45606;-87
2022/07/26 09:48:46;;;;;;;;;3.00;3.00;;;;;22.56;81.10;101592.13;5124725;27;45788;-86
2022/07/26 09:51:11;;;;;;;;;1.00;1.00;;;;;22.67;80.16;101590.47;5125593;27;45269;-85
2022/07/26 09:53:44;;;;;;;;;4.00;2.00;;;;;22.76;79.68;101594.03;5125004;27;45565;-85
2022/07/26 09:56:10;;;;;;;;;3.50;2.00;;;;;22.92;78.08;101600.28;5103968;27;45875;-85
2022/07/26 09:58:37;;;;;;;;;2.00;2.00;;;;;23.00;76.72;101604.72;5109342;27;45329;-83
2022/07/26 10:01:05;;;;;;;;;3.00;3.00;;;;;23.07;75.97;101595.09;5122353;27;45157;-89
2022/07/26 10:03:31;;;;;;;;;3.25;2.25;;;;;23.18;75.41;101603.09;5127211;27;45369;-86
2022/07/26 10:05:58;;;;;;;;;1.25;1.25;;;;;23.31;74.03;101597.03;5104052;27;45378;-87
2022/07/26 10:08:24;;;;;;;;;2.00;2.00;;;;;23.43;72.45;101600.59;5124423;27;45325;-86
2022/07/26 10:11:13;;;;;;;;;1.75;1.25;;;;;23.50;70.86;101605.00;5129191;27;45381;-85
2022/07/26 10:13:38;;;;;;;;;1.25;1.25;;;;;23.53;70.60;101605.03;5131538;27;45309;-87
2022/07/26 10:16:04;;;;;;;;;2.00;1.00;;;;;23.61;69.96;101599.75;5122796;27;46012;-85
2022/07/26 10:18:36;;;;;;;;;2.00;2.00;;;;;23.62;69.00;101609.44;5120719;27;45261;-87
2022/07/26 10:21:20;;;;;;;;;3.00;3.00;;;;;23.59;68.30;101605.03;5122054;27;45362;-85
2022/07/26 10:23:49;;;;;;;;;5.25;4.50;;;;;23.59;67.90;101602.41;5124646;27;45503;-86
2022/07/26 10:26:32;;;;;;;;;3.00;2.00;;;;;23.66;66.96;101605.94;5124228;27;46427;-85
2022/07/26 10:29:16;;;;;;;;;2.00;2.00;;;;;23.69;66.51;101605.06;5123448;27;45281;-84
2022/07/26 10:31:43;;;;;;;;;2.75;2.00;;;;;23.74;63.28;101605.97;5129404;27;45252;-84
2022/07/26 10:34:09;;;;;;;;;2.00;1.25;;;;;23.75;64.04;101597.16;5131108;27;44812;-85
2022/07/26 10:36:38;;;;;;;;;2.00;2.00;;;;;23.78;63.44;101608.63;5134392;27;46159;-85
2022/07/26 10:39:10;;;;;;;;;1.00;1.00;;;;;23.75;62.79;101613.03;5131369;27;45309;-87
2022/07/26 10:41:55;;;;;;;;;2.00;2.00;;;;;23.78;62.66;101600.69;5107161;27;45238;-85
2022/07/26 10:44:26;;;;;;;;;1.00;1.00;;;;;23.85;61.13;101598.06;5121958;27;45267;-85
2022/07/26 10:47:07;;;;;;;;;2.00;2.00;;;;;23.94;61.15;101608.66;5123248;27;45572;-84
2022/07/26 10:49:54;;;;;;;;;1.00;1.00;;;;;23.98;57.85;101602.53;5120137;27;45474;-84
2022/07/26 10:52:24;;;;;;;;;0.75;0.75;;;;;24.01;57.49;101599.00;5119669;27;45428;-84
2022/07/26 10:54:56;;;;;;;;;4.00;2.25;;;;;24.07;58.29;101605.19;5100690;27;45437;-85
2022/07/26 10:57:27;;;;;;;;;2.00;2.00;;;;;24.10;58.69;101599.91;5118669;27;45588;-85
2022/07/26 10:59:56;;;;;;;;;2.75;2.00;;;;;24.17;57.41;101598.16;5118855;27;45421;-85
2022/07/26 11:02:30;;;;;;;;;3.75;3.00;;;;;24.15;57.42;101602.56;5122478;27;45366;-84
2022/07/26 11:05:11;;;;;;;;;3.75;2.75;;;;;24.16;55.70;101606.06;5108161;27;45383;-83
2022/07/26 11:07:54;;;;;;;;;0.50;0.50;;;;;24.09;56.85;101599.88;5106722;27;47577;-85
2022/07/26 11:10:32;;;;;;;;;2.00;2.00;;;;;24.04;56.75;101613.09;5100054;27;45903;-84
2022/07/26 11:13:07;;;;;;;;;2.25;2.25;;;;;23.84;57.32;101593.63;5102371;27;45410;-86
2022/07/26 11:15:35;;;;;;;;;3.75;2.00;;;;;23.71;57.49;101600.66;5125323;27;45439;-86
2022/07/26 11:18:09;;;;;;;;;2.25;2.25;;;;;23.62;59.32;101605.06;5124315;27;45337;-87
2022/07/26 11:20:35;;;;;;;;;3.00;2.00;;;;;23.55;60.25;101597.09;5125503;27;45692;-86
2022/07/26 11:23:01;;;;;;;;;1.00;1.00;;;;;23.51;60.92;101604.13;5122206;27;45336;-86
2022/07/26 11:25:27;;;;;;;;;1.50;1.00;;;;;23.42;61.40;101604.09;5121956;27;45558;-86